Time;durP1;ratioP1;P1;durP2;ratioP2;P2;SDS_P1;SDS_P2;PMS_P1;PMS_P2;Temp;Humidity;BMP_temperature;BMP_pressure;BME280_temperature;BME280_humidity;BME280_pressure;Samples;Min_cycle;Max_cycle;Signal;HPM_P1;HPM_P2
2021/12/05 00:24:10;;;;;;;10.27;8.17;;;;;;;;;;5095783;27;20565;-73
2021/12/05 00:26:38;;;;;;;9.83;8.17;;;;;;;;;;5097894;27;20830;-73
2021/12/05 00:49:10;;;;;;;8.60;7.70;;;;;;;;;;5097507;27;20486;-73
2021/12/05 00:57:44;;;;;;;9.20;6.33;;;;;;;;;;5036327;28;20551;-73
2021/12/05 01:01:00;;;;;;;7.43;4.60;;;;;;;;;;5035465;28;20717;-74
2021/12/05 01:03:47;;;;;;;8.60;5.97;;;;;;;;;;5091891;27;20508;-73
2021/12/05 01:09:16;;;;;;;6.17;4.90;;;;;;;;;;5096465;27;20478;-72
2021/12/05 01:12:05;;;;;;;8.40;5.93;;;;;;;;;;5097606;27;20948;-72
2021/12/05 01:14:36;;;;;;;11.87;6.23;;;;;;;;;;5097213;27;20466;-72
2021/12/05 01:17:04;;;;;;;9.60;5.83;;;;;;;;;;5097045;27;20508;-72
2021/12/05 01:19:33;;;;;;;8.33;6.40;;;;;;;;;;5097344;27;20555;-73
2021/12/05 01:22:05;;;;;;;8.90;6.27;;;;;;;;;;5098862;27;20514;-72
2021/12/05 01:24:39;;;;;;;6.90;5.53;;;;;;;;;;5097148;27;20502;-73
2021/12/05 01:27:13;;;;;;;9.87;6.60;;;;;;;;;;5097361;27;20439;-73
2021/12/05 01:29:47;;;;;;;5.90;4.20;;;;;;;;;;5097563;27;20488;-73
2021/12/05 01:32:22;;;;;;;9.13;6.40;;;;;;;;;;5096481;27;20701;-73
2021/12/05 01:35:04;;;;;;;10.07;5.97;;;;;;;;;;5097378;27;20474;-73
2021/12/05 01:37:43;;;;;;;8.40;5.83;;;;;;;;;;5102329;27;20512;-73
2021/12/05 01:40:42;;;;;;;6.77;4.60;;;;;;;;;;5097064;27;20508;-72
2021/12/05 01:54:29;;;;;;;9.70;6.27;;;;;;;;;;5078722;27;20433;-72
2021/12/05 02:03:00;;;;;;;11.60;7.83;;;;;;;;;;5096309;27;20486;-72
2021/12/05 02:11:20;;;;;;;12.40;7.37;;;;;;;;;;5077814;27;20447;-73
2021/12/05 02:31:05;;;;;;;13.23;8.20;;;;;;;;;;5099802;27;20539;-72
2021/12/05 02:36:32;;;;;;;18.20;9.13;;;;;;;;;;5098017;27;20456;-74
2021/12/05 02:39:21;;;;;;;11.57;7.63;;;;;;;;;;5100693;27;20454;-74
2021/12/05 02:41:50;;;;;;;19.63;10.10;;;;;;;;;;5099771;27;20550;-74
2021/12/05 02:44:21;;;;;;;17.17;9.83;;;;;;;;;;5099054;27;20451;-73
2021/12/05 02:46:51;;;;;;;13.63;8.83;;;;;;;;;;5098733;27;20444;-73
2021/12/05 02:49:19;;;;;;;15.77;8.93;;;;;;;;;;5099281;27;20501;-73
2021/12/05 02:51:52;;;;;;;15.20;9.77;;;;;;;;;;5099376;27;20466;-73
2021/12/05 02:54:21;;;;;;;18.03;10.77;;;;;;;;;;5099336;27;20777;-73
2021/12/05 02:56:50;;;;;;;15.47;10.10;;;;;;;;;;5098880;27;20544;-73
2021/12/05 02:59:24;;;;;;;16.17;10.70;;;;;;;;;;5100393;27;20452;-73
2021/12/05 03:01:56;;;;;;;15.87;9.03;;;;;;;;;;5099228;27;20497;-73
2021/12/05 03:04:24;;;;;;;16.73;11.10;;;;;;;;;;5099310;27;20452;-73
2021/12/05 03:06:55;;;;;;;20.30;10.67;;;;;;;;;;5099240;27;20456;-73
2021/12/05 03:09:24;;;;;;;19.73;10.87;;;;;;;;;;5099196;27;20484;-73
2021/12/05 03:11:52;;;;;;;16.20;9.07;;;;;;;;;;5100365;27;20462;-72
2021/12/05 03:14:19;;;;;;;19.57;10.40;;;;;;;;;;5099644;27;20724;-73
2021/12/05 03:16:46;;;;;;;21.40;10.93;;;;;;;;;;5099719;27;20531;-73
2021/12/05 03:19:15;;;;;;;13.27;9.93;;;;;;;;;;5099325;27;20456;-73
2021/12/05 03:21:42;;;;;;;19.67;9.60;;;;;;;;;;5100028;27;20451;-73
2021/12/05 03:24:17;;;;;;;15.60;10.70;;;;;;;;;;5110882;27;20450;-73
2021/12/05 03:26:49;;;;;;;22.40;11.90;;;;;;;;;;5114621;27;20530;-73
2021/12/05 03:29:17;;;;;;;22.53;10.50;;;;;;;;;;5098624;27;20535;-73
2021/12/05 03:31:44;;;;;;;19.93;10.10;;;;;;;;;;5098771;27;20456;-73
2021/12/05 03:34:13;;;;;;;21.30;11.67;;;;;;;;;;5098889;27;20447;-73
2021/12/05 03:36:42;;;;;;;16.83;10.30;;;;;;;;;;5098793;27;20478;-73
2021/12/05 03:39:10;;;;;;;20.33;10.83;;;;;;;;;;5099089;27;20512;-73
2021/12/05 03:41:41;;;;;;;20.73;11.77;;;;;;;;;;5099287;27;20518;-73
2021/12/05 03:44:11;;;;;;;21.50;12.00;;;;;;;;;;5098704;27;20456;-72
2021/12/05 03:46:38;;;;;;;17.37;11.50;;;;;;;;;;5098803;27;20463;-73
2021/12/05 03:49:06;;;;;;;20.17;10.97;;;;;;;;;;5097859;27;20487;-73
2021/12/05 03:51:34;;;;;;;21.70;11.50;;;;;;;;;;5099040;27;20475;-73
2021/12/05 03:54:02;;;;;;;21.87;12.40;;;;;;;;;;5098577;27;20448;-73
2021/12/05 03:56:29;;;;;;;19.27;12.77;;;;;;;;;;5098686;27;20459;-72
2021/12/05 03:58:56;;;;;;;23.27;12.30;;;;;;;;;;5098908;27;20844;-73
2021/12/05 04:01:30;;;;;;;23.97;13.10;;;;;;;;;;5098904;27;20477;-73
2021/12/05 04:03:57;;;;;;;21.13;12.60;;;;;;;;;;5098207;27;20486;-73
2021/12/05 04:06:25;;;;;;;24.57;12.57;;;;;;;;;;5099337;27;20458;-73
2021/12/05 04:08:54;;;;;;;20.67;11.87;;;;;;;;;;5098375;27;20519;-73
2021/12/05 04:11:28;;;;;;;25.40;11.80;;;;;;;;;;5098969;27;20933;-73
2021/12/05 04:13:58;;;;;;;20.87;12.23;;;;;;;;;;5098952;27;20595;-73
2021/12/05 04:16:26;;;;;;;20.50;13.60;;;;;;;;;;5098885;27;20444;-73
2021/12/05 04:18:54;;;;;;;18.13;11.30;;;;;;;;;;5098221;27;20459;-72
2021/12/05 04:21:21;;;;;;;16.47;9.37;;;;;;;;;;5098122;27;20460;-73
2021/12/05 04:23:48;;;;;;;22.77;12.10;;;;;;;;;;5098348;27;20463;-73
2021/12/05 04:26:16;;;;;;;26.97;12.90;;;;;;;;;;5098605;27;20462;-73
2021/12/05 04:28:44;;;;;;;19.33;10.57;;;;;;;;;;5098640;27;20773;-73
2021/12/05 04:31:11;;;;;;;19.70;11.80;;;;;;;;;;5097931;27;20708;-73
2021/12/05 04:33:39;;;;;;;20.30;9.30;;;;;;;;;;5098460;27;20455;-73
2021/12/05 04:36:09;;;;;;;23.13;11.43;;;;;;;;;;5099063;27;20443;-73
2021/12/05 04:38:37;;;;;;;20.53;10.77;;;;;;;;;;5097247;27;20459;-73
2021/12/05 04:41:04;;;;;;;20.77;9.33;;;;;;;;;;5098097;27;20448;-73
2021/12/05 04:43:37;;;;;;;18.50;10.87;;;;;;;;;;5097846;27;20579;-73
2021/12/05 04:46:05;;;;;;;23.17;12.93;;;;;;;;;;5097747;27;20763;-73
2021/12/05 04:48:33;;;;;;;20.23;13.00;;;;;;;;;;5098553;27;20732;-73
2021/12/05 04:51:00;;;;;;;17.70;9.20;;;;;;;;;;5097849;27;20516;-73
2021/12/05 04:53:31;;;;;;;25.47;11.67;;;;;;;;;;5098132;27;20951;-73
2021/12/05 04:55:59;;;;;;;24.83;11.77;;;;;;;;;;5098615;27;20451;-73
2021/12/05 04:58:26;;;;;;;23.00;11.00;;;;;;;;;;5097646;27;20463;-73
2021/12/05 05:00:54;;;;;;;19.63;10.67;;;;;;;;;;5098786;27;20440;-73
2021/12/05 05:03:21;;;;;;;22.93;13.90;;;;;;;;;;5097338;27;20456;-73
2021/12/05 05:06:01;;;;;;;19.03;11.27;;;;;;;;;;5097491;27;20546;-73
2021/12/05 05:08:32;;;;;;;16.50;9.80;;;;;;;;;;5098478;27;20474;-73
2021/12/05 05:11:00;;;;;;;23.73;12.50;;;;;;;;;;5097072;27;20884;-73
2021/12/05 05:13:27;;;;;;;24.70;12.20;;;;;;;;;;5097699;27;20903;-73
2021/12/05 05:15:57;;;;;;;20.10;10.50;;;;;;;;;;5097159;27;20447;-73
2021/12/05 05:18:28;;;;;;;24.07;11.90;;;;;;;;;;5097385;27;20721;-73
2021/12/05 05:21:05;;;;;;;24.27;11.80;;;;;;;;;;5096696;27;20541;-73
2021/12/05 05:23:58;;;;;;;23.10;11.60;;;;;;;;;;5097107;27;20514;-73
2021/12/05 05:40:20;;;;;;;24.83;13.80;;;;;;;;;;5096418;27;20481;-73
2021/12/05 05:45:50;;;;;;;23.00;11.70;;;;;;;;;;5096126;27;20584;-73
2021/12/05 05:48:32;;;;;;;21.80;11.70;;;;;;;;;;5096962;27;20489;-73
2021/12/05 05:51:00;;;;;;;22.20;11.57;;;;;;;;;;5098058;27;20548;-73
2021/12/05 05:53:27;;;;;;;20.33;10.33;;;;;;;;;;5100861;27;20790;-73
2021/12/05 05:55:55;;;;;;;21.03;11.73;;;;;;;;;;5100173;27;20773;-72
2021/12/05 05:58:27;;;;;;;21.17;11.00;;;;;;;;;;5100236;27;20459;-73
2021/12/05 06:01:02;;;;;;;18.00;10.10;;;;;;;;;;5100221;27;20894;-72
2021/12/05 06:03:32;;;;;;;18.20;11.23;;;;;;;;;;5099795;27;20462;-72
2021/12/05 06:06:00;;;;;;;19.53;11.50;;;;;;;;;;5100931;27;20470;-73
2021/12/05 06:08:28;;;;;;;21.13;12.07;;;;;;;;;;5100538;27;20536;-73
2021/12/05 06:10:57;;;;;;;21.03;10.87;;;;;;;;;;5099800;27;20521;-72
2021/12/05 06:13:24;;;;;;;19.53;12.20;;;;;;;;;;5100747;27;20448;-73
2021/12/05 06:15:52;;;;;;;21.20;10.23;;;;;;;;;;5099127;27;20444;-73
2021/12/05 06:18:21;;;;;;;24.90;11.60;;;;;;;;;;5100419;27;20489;-73
2021/12/05 06:20:48;;;;;;;18.57;9.77;;;;;;;;;;5099903;27;20451;-73
2021/12/05 06:23:15;;;;;;;22.67;10.30;;;;;;;;;;5100009;27;20815;-73
2021/12/05 06:25:44;;;;;;;19.43;9.87;;;;;;;;;;5100659;27;20553;-73
2021/12/05 06:28:13;;;;;;;17.40;9.30;;;;;;;;;;5099768;27;20881;-73
2021/12/05 06:30:48;;;;;;;17.50;9.33;;;;;;;;;;5100577;27;20494;-73
2021/12/05 06:41:53;;;;;;;20.93;11.63;;;;;;;;;;5100322;27;20482;-73
2021/12/05 06:47:08;;;;;;;17.70;9.20;;;;;;;;;;5099335;27;20439;-74
2021/12/05 06:49:35;;;;;;;17.23;8.30;;;;;;;;;;5100286;27;20492;-74
2021/12/05 06:52:02;;;;;;;15.83;10.53;;;;;;;;;;5098928;27;20512;-73
2021/12/05 06:54:29;;;;;;;15.50;8.47;;;;;;;;;;5099978;27;20448;-73
2021/12/05 06:56:56;;;;;;;12.90;8.00;;;;;;;;;;5100046;27;20460;-73
2021/12/05 06:59:23;;;;;;;18.43;7.37;;;;;;;;;;5099513;27;20526;-73
2021/12/05 07:01:51;;;;;;;17.77;8.20;;;;;;;;;;5123768;27;20934;-73
2021/12/05 07:04:42;;;;;;;11.87;8.13;;;;;;;;;;5140266;27;20461;-73
2021/12/05 07:07:20;;;;;;;12.73;7.87;;;;;;;;;;5140718;27;20453;-74
2021/12/05 07:09:48;;;;;;;13.90;7.73;;;;;;;;;;5140871;27;20960;-74
2021/12/05 07:15:03;;;;;;;12.50;8.20;;;;;;;;;;5107897;28;20445;-74
2021/12/05 07:20:08;;;;;;;13.53;7.13;;;;;;;;;;5139829;27;20516;-73
2021/12/05 07:22:43;;;;;;;10.50;7.00;;;;;;;;;;5141814;27;20576;-74
2021/12/05 07:25:14;;;;;;;13.53;6.60;;;;;;;;;;5140309;27;20469;-74
2021/12/05 07:41:39;;;;;;;12.57;6.80;;;;;;;;;;5140366;27;20490;-74
2021/12/05 07:44:06;;;;;;;11.13;7.10;;;;;;;;;;5140840;27;20845;-75
2021/12/05 07:46:33;;;;;;;16.83;12.23;;;;;;;;;;5141263;27;20441;-72
2021/12/05 07:49:00;;;;;;;13.00;7.97;;;;;;;;;;5141348;27;20473;-73
2021/12/05 07:51:30;;;;;;;11.87;6.43;;;;;;;;;;5141783;27;20777;-73
2021/12/05 07:54:06;;;;;;;12.90;7.93;;;;;;;;;;5140932;27;20506;-74
2021/12/05 07:56:40;;;;;;;11.17;7.60;;;;;;;;;;5142037;27;20566;-74
2021/12/05 07:59:17;;;;;;;13.43;7.97;;;;;;;;;;5144148;27;20513;-74
2021/12/05 08:15:34;;;;;;;12.60;7.37;;;;;;;;;;5136279;27;20460;-75
2021/12/05 08:18:06;;;;;;;12.00;7.67;;;;;;;;;;5140469;27;20481;-75
2021/12/05 08:20:36;;;;;;;12.87;8.90;;;;;;;;;;5117410;27;20620;-73
2021/12/05 08:23:03;;;;;;;12.40;8.27;;;;;;;;;;5117717;27;20738;-75
2021/12/05 08:25:31;;;;;;;10.30;6.20;;;;;;;;;;5119882;27;20498;-75
2021/12/05 08:28:12;;;;;;;12.23;8.10;;;;;;;;;;5117166;27;20478;-74
2021/12/05 08:30:40;;;;;;;12.30;8.30;;;;;;;;;;5117159;27;20478;-74
2021/12/05 08:33:38;;;;;;;12.20;7.67;;;;;;;;;;5124982;27;20506;-75
2021/12/05 08:36:36;;;;;;;12.57;7.87;;;;;;;;;;5104515;27;20455;-75
2021/12/05 08:40:00;;;;;;;17.10;10.93;;;;;;;;;;5112300;27;20447;-74
2021/12/05 09:24:41;;;;;;;17.87;13.10;;;;;;;;;;5039457;28;20445;-75
2021/12/05 09:27:50;;;;;;;16.60;10.33;;;;;;;;;;5116513;27;20549;-74
2021/12/05 09:30:42;;;;;;;14.47;9.00;;;;;;;;;;5116906;27;20480;-74
2021/12/05 09:39:19;;;;;;;13.37;10.30;;;;;;;;;;5093204;27;20722;-74
2021/12/05 09:53:29;;;;;;;13.73;8.83;;;;;;;;;;5116344;27;20450;-73
2021/12/05 10:07:20;;;;;;;13.90;10.50;;;;;;;;;;5110773;27;20446;-74
2021/12/05 10:10:09;;;;;;;14.80;11.30;;;;;;;;;;5114587;27;20489;-75
2021/12/05 10:12:56;;;;;;;14.33;9.10;;;;;;;;;;5114441;27;20894;-74
2021/12/05 10:15:36;;;;;;;17.07;9.93;;;;;;;;;;5124040;27;20810;-74
2021/12/05 10:18:50;;;;;;;12.13;8.47;;;;;;;;;;5115813;27;20949;-74
2021/12/05 10:27:13;;;;;;;13.70;9.20;;;;;;;;;;5115596;27;20515;-74
2021/12/05 10:35:39;;;;;;;13.57;9.37;;;;;;;;;;5116606;27;20488;-73
2021/12/05 10:38:12;;;;;;;14.10;9.20;;;;;;;;;;5119738;27;20450;-75
2021/12/05 10:40:44;;;;;;;13.80;10.10;;;;;;;;;;5121061;27;20461;-74
2021/12/05 10:43:13;;;;;;;13.23;8.97;;;;;;;;;;5120706;27;20463;-74
2021/12/05 10:45:46;;;;;;;12.23;8.93;;;;;;;;;;5113306;27;20512;-74
2021/12/05 10:48:23;;;;;;;13.10;9.13;;;;;;;;;;5120081;27;20482;-74
2021/12/05 10:50:51;;;;;;;15.53;11.83;;;;;;;;;;5117129;27;20494;-74
2021/12/05 10:53:29;;;;;;;17.30;12.23;;;;;;;;;;5105930;27;20887;-73
2021/12/05 10:55:58;;;;;;;12.90;8.63;;;;;;;;;;5098866;27;20535;-73
2021/12/05 10:58:29;;;;;;;21.43;12.57;;;;;;;;;;5098163;27;20764;-73
2021/12/05 11:01:05;;;;;;;21.63;11.97;;;;;;;;;;5097885;27;20440;-75
2021/12/05 11:03:32;;;;;;;15.00;9.07;;;;;;;;;;5098175;27;20455;-74
2021/12/05 11:05:59;;;;;;;13.43;8.17;;;;;;;;;;5097535;27;20459;-74
2021/12/05 11:08:35;;;;;;;16.37;10.60;;;;;;;;;;5096917;27;20551;-74
2021/12/05 11:11:14;;;;;;;13.73;9.87;;;;;;;;;;5097227;27;20524;-73
2021/12/05 11:13:43;;;;;;;11.17;7.60;;;;;;;;;;5097858;27;20486;-74
2021/12/05 11:16:25;;;;;;;15.77;10.07;;;;;;;;;;5099310;27;20460;-74
2021/12/05 11:18:52;;;;;;;15.80;10.13;;;;;;;;;;5113106;27;20541;-73
2021/12/05 11:21:29;;;;;;;12.67;9.13;;;;;;;;;;5118627;27;20553;-73
2021/12/05 11:24:14;;;;;;;11.53;8.90;;;;;;;;;;5118305;27;20457;-73
2021/12/05 11:26:42;;;;;;;13.47;8.43;;;;;;;;;;5118052;27;20884;-73
2021/12/05 11:29:22;;;;;;;11.00;6.87;;;;;;;;;;5117849;27;20889;-74
2021/12/05 11:31:53;;;;;;;16.77;12.50;;;;;;;;;;5117008;27;20944;-73
2021/12/05 11:34:31;;;;;;;11.50;9.27;;;;;;;;;;5117772;27;20465;-73
2021/12/05 11:36:58;;;;;;;14.70;12.13;;;;;;;;;;5117730;27;20772;-74
2021/12/05 11:39:26;;;;;;;11.70;8.40;;;;;;;;;;5118532;27;20788;-73
2021/12/05 11:41:55;;;;;;;12.53;8.57;;;;;;;;;;5119136;27;20746;-73
2021/12/05 11:44:25;;;;;;;12.90;9.83;;;;;;;;;;5118165;27;20443;-74
2021/12/05 11:47:00;;;;;;;11.00;8.50;;;;;;;;;;5117582;27;20696;-74
2021/12/05 11:49:27;;;;;;;11.23;7.97;;;;;;;;;;5117537;27;20482;-74
2021/12/05 11:51:58;;;;;;;17.93;12.43;;;;;;;;;;5117647;27;20535;-74
2021/12/05 11:54:26;;;;;;;14.47;9.03;;;;;;;;;;5134286;27;20446;-73
2021/12/05 11:56:55;;;;;;;12.97;8.93;;;;;;;;;;5136412;27;20454;-74
2021/12/05 11:59:26;;;;;;;14.67;9.60;;;;;;;;;;5137602;27;20849;-74
2021/12/05 12:01:59;;;;;;;10.83;8.47;;;;;;;;;;5138738;27;20499;-74
2021/12/05 12:04:53;;;;;;;8.70;6.90;;;;;;;;;;5138100;27;20445;-74
2021/12/05 12:07:28;;;;;;;10.50;8.27;;;;;;;;;;5114935;27;20478;-74
2021/12/05 12:10:00;;;;;;;11.73;8.33;;;;;;;;;;5117233;27;20942;-73
2021/12/05 12:15:38;;;;;;;10.80;8.47;;;;;;;;;;5098827;27;20470;-74
2021/12/05 12:18:36;;;;;;;13.37;8.50;;;;;;;;;;5097416;27;20462;-74
2021/12/05 12:21:06;;;;;;;12.90;10.20;;;;;;;;;;5097034;27;20471;-73
2021/12/05 12:23:35;;;;;;;15.60;11.30;;;;;;;;;;5099517;27;20534;-74
2021/12/05 12:26:04;;;;;;;9.23;8.20;;;;;;;;;;5115080;27;20461;-73
2021/12/05 12:28:34;;;;;;;12.57;9.03;;;;;;;;;;5113519;27;20449;-74
2021/12/05 12:31:07;;;;;;;16.57;11.73;;;;;;;;;;5117326;27;20501;-74
2021/12/05 12:33:38;;;;;;;9.43;8.07;;;;;;;;;;5111704;27;20502;-74
2021/12/05 12:36:06;;;;;;;17.33;8.60;;;;;;;;;;5116599;27;20526;-74
2021/12/05 12:38:41;;;;;;;16.87;10.23;;;;;;;;;;5116658;27;20453;-74
2021/12/05 12:41:20;;;;;;;14.60;11.03;;;;;;;;;;5117135;27;20446;-73
2021/12/05 12:43:49;;;;;;;14.07;9.60;;;;;;;;;;5099690;27;20443;-72
2021/12/05 12:46:32;;;;;;;14.23;10.67;;;;;;;;;;5097429;27;21494;-72
2021/12/05 12:49:01;;;;;;;18.50;11.90;;;;;;;;;;5112352;27;20450;-72
2021/12/05 12:51:30;;;;;;;16.33;12.20;;;;;;;;;;5116183;27;20945;-73
2021/12/05 12:54:01;;;;;;;14.63;9.60;;;;;;;;;;5115757;27;20492;-72
2021/12/05 12:56:29;;;;;;;13.17;8.40;;;;;;;;;;5116259;27;20462;-72
2021/12/05 12:58:59;;;;;;;15.67;11.70;;;;;;;;;;5115680;27;20724;-73
2021/12/05 13:01:40;;;;;;;13.97;9.97;;;;;;;;;;5102317;27;20467;-72
2021/12/05 13:04:36;;;;;;;18.77;12.77;;;;;;;;;;5097066;27;20814;-72
2021/12/05 13:10:06;;;;;;;16.53;11.40;;;;;;;;;;5095300;27;20478;-73
2021/12/05 13:12:35;;;;;;;21.00;11.37;;;;;;;;;;5094897;27;20542;-73
2021/12/05 13:15:05;;;;;;;18.90;12.03;;;;;;;;;;5096008;27;20856;-73
2021/12/05 13:17:40;;;;;;;25.13;15.13;;;;;;;;;;5096487;27;20452;-73
2021/12/05 13:20:09;;;;;;;66.97;35.90;;;;;;;;;;5093953;27;20457;-73
2021/12/05 13:22:58;;;;;;;22.47;12.03;;;;;;;;;;5095298;27;20463;-73
2021/12/05 13:25:48;;;;;;;20.13;11.97;;;;;;;;;;5093713;27;20447;-73
2021/12/05 13:28:30;;;;;;;18.93;11.37;;;;;;;;;;5110921;27;20874;-71
2021/12/05 13:30:57;;;;;;;18.70;11.47;;;;;;;;;;5112660;27;20891;-72
2021/12/05 13:33:31;;;;;;;18.80;11.00;;;;;;;;;;5114710;27;20450;-73
2021/12/05 13:36:01;;;;;;;21.30;13.67;;;;;;;;;;5114329;27;20453;-73
2021/12/05 13:38:32;;;;;;;19.83;13.37;;;;;;;;;;5115736;27;20525;-71
2021/12/05 13:41:10;;;;;;;21.70;12.67;;;;;;;;;;5115727;27;20500;-73
2021/12/05 13:43:38;;;;;;;16.07;11.33;;;;;;;;;;5104743;27;20528;-72
2021/12/05 13:46:20;;;;;;;18.20;12.80;;;;;;;;;;5096090;27;20451;-73
2021/12/05 13:51:38;;;;;;;21.53;11.93;;;;;;;;;;5092582;27;20484;-72
2021/12/05 13:54:21;;;;;;;24.30;15.40;;;;;;;;;;5094943;27;20451;-73
2021/12/05 13:56:49;;;;;;;20.37;14.53;;;;;;;;;;5095411;27;20743;-73
2021/12/05 13:59:26;;;;;;;23.47;13.33;;;;;;;;;;5095464;27;20878;-73
2021/12/05 14:01:54;;;;;;;24.53;15.87;;;;;;;;;;5096587;27;20455;-72
2021/12/05 14:04:26;;;;;;;25.20;16.60;;;;;;;;;;5097191;27;20444;-72
2021/12/05 14:06:57;;;;;;;24.97;16.80;;;;;;;;;;5095360;27;20460;-72
2021/12/05 14:09:29;;;;;;;19.60;12.80;;;;;;;;;;5095975;27;20452;-73
2021/12/05 14:12:01;;;;;;;20.17;12.73;;;;;;;;;;5097339;27;20486;-73
2021/12/05 14:14:38;;;;;;;18.00;12.50;;;;;;;;;;5101077;27;20626;-73
2021/12/05 14:17:06;;;;;;;18.40;13.50;;;;;;;;;;5098452;27;20545;-73
2021/12/05 14:19:40;;;;;;;23.93;14.57;;;;;;;;;;5119520;27;20447;-73
2021/12/05 14:22:12;;;;;;;22.20;15.10;;;;;;;;;;5117141;27;20450;-73
2021/12/05 14:24:44;;;;;;;26.93;15.70;;;;;;;;;;5099163;27;20451;-72
2021/12/05 14:27:15;;;;;;;24.40;16.27;;;;;;;;;;5099176;27;20458;-73
2021/12/05 14:29:44;;;;;;;25.27;16.37;;;;;;;;;;5100405;27;20487;-73
2021/12/05 14:32:18;;;;;;;22.30;15.60;;;;;;;;;;5099329;27;20521;-73
2021/12/05 14:34:46;;;;;;;23.10;15.10;;;;;;;;;;5103275;27;20489;-74
2021/12/05 14:37:19;;;;;;;27.57;17.73;;;;;;;;;;5099785;27;21083;-73
2021/12/05 14:39:50;;;;;;;21.70;15.30;;;;;;;;;;5099092;27;20538;-73
2021/12/05 14:42:18;;;;;;;23.67;17.03;;;;;;;;;;5098871;27;20476;-73
2021/12/05 14:44:53;;;;;;;25.73;17.97;;;;;;;;;;5099295;27;20769;-73
2021/12/05 14:47:21;;;;;;;22.43;14.30;;;;;;;;;;5111601;27;20935;-72
2021/12/05 14:49:51;;;;;;;28.10;17.23;;;;;;;;;;5120223;27;20483;-74
2021/12/05 14:52:20;;;;;;;26.50;17.40;;;;;;;;;;5119496;27;20812;-73
2021/12/05 14:54:48;;;;;;;28.00;18.87;;;;;;;;;;5118840;27;20450;-74
2021/12/05 14:57:17;;;;;;;32.93;18.47;;;;;;;;;;5098283;27;20436;-74
2021/12/05 14:59:45;;;;;;;28.83;17.00;;;;;;;;;;5112348;27;20866;-74
2021/12/05 15:02:14;;;;;;;27.00;15.97;;;;;;;;;;5118940;27;20447;-73
2021/12/05 15:04:43;;;;;;;25.50;16.93;;;;;;;;;;5119705;27;20485;-73
2021/12/05 15:07:17;;;;;;;26.93;17.00;;;;;;;;;;5119339;27;20901;-73
2021/12/05 15:09:46;;;;;;;25.10;15.27;;;;;;;;;;5118700;27;20498;-73
2021/12/05 15:12:16;;;;;;;26.03;16.40;;;;;;;;;;5119141;27;20450;-74
2021/12/05 15:14:44;;;;;;;27.00;15.60;;;;;;;;;;5107727;27;20456;-73
2021/12/05 15:17:12;;;;;;;30.77;16.40;;;;;;;;;;5099498;27;20498;-73
2021/12/05 15:19:43;;;;;;;21.50;13.27;;;;;;;;;;5100142;27;20562;-73
2021/12/05 15:22:15;;;;;;;31.80;19.63;;;;;;;;;;5097395;27;20795;-74
2021/12/05 15:24:51;;;;;;;28.50;19.80;;;;;;;;;;5097233;27;20480;-73
2021/12/05 15:27:23;;;;;;;32.73;16.80;;;;;;;;;;5098829;27;20538;-73
2021/12/05 15:29:52;;;;;;;33.20;21.40;;;;;;;;;;5098371;27;20549;-74
2021/12/05 15:32:22;;;;;;;33.90;18.43;;;;;;;;;;5097873;27;20452;-74
2021/12/05 15:34:51;;;;;;;33.30;17.40;;;;;;;;;;5097452;27;20483;-74
2021/12/05 15:37:24;;;;;;;29.67;18.53;;;;;;;;;;5098062;27;20724;-73
2021/12/05 15:39:56;;;;;;;30.17;19.60;;;;;;;;;;5097663;27;20447;-72
2021/12/05 15:42:25;;;;;;;36.47;21.23;;;;;;;;;;5098288;27;20452;-74
2021/12/05 15:44:53;;;;;;;33.77;18.70;;;;;;;;;;5098797;27;20454;-73
2021/12/05 15:47:24;;;;;;;29.47;18.50;;;;;;;;;;5096631;27;20542;-74
2021/12/05 15:49:58;;;;;;;26.10;17.53;;;;;;;;;;5098345;27;20472;-73
2021/12/05 15:52:30;;;;;;;25.90;14.37;;;;;;;;;;5098312;27;20463;-74
2021/12/05 15:54:59;;;;;;;28.50;16.93;;;;;;;;;;5098962;27;20467;-73
2021/12/05 15:57:31;;;;;;;37.63;18.73;;;;;;;;;;5100449;27;20452;-73
2021/12/05 16:00:08;;;;;;;34.07;18.70;;;;;;;;;;5118019;27;20468;-72
2021/12/05 16:02:41;;;;;;;29.43;17.23;;;;;;;;;;5119895;27;20439;-72
2021/12/05 16:05:14;;;;;;;29.43;17.13;;;;;;;;;;5118445;27;20637;-73
2021/12/05 16:07:42;;;;;;;24.17;16.17;;;;;;;;;;5118104;27;20463;-73
2021/12/05 16:10:16;;;;;;;26.10;15.47;;;;;;;;;;5118618;27;20577;-73
2021/12/05 16:12:44;;;;;;;24.50;15.13;;;;;;;;;;5117860;27;20450;-73
2021/12/05 16:15:12;;;;;;;27.33;15.73;;;;;;;;;;5118242;27;20454;-73
2021/12/05 16:17:41;;;;;;;27.70;16.30;;;;;;;;;;5117079;27;20465;-73
2021/12/05 16:20:14;;;;;;;31.83;18.40;;;;;;;;;;5118151;27;20498;-73
2021/12/05 16:22:59;;;;;;;27.23;14.00;;;;;;;;;;5118186;27;20447;-74
2021/12/05 16:25:29;;;;;;;24.97;14.40;;;;;;;;;;5117306;27;20454;-73
2021/12/05 16:28:01;;;;;;;25.17;16.00;;;;;;;;;;5111650;27;20586;-73
2021/12/05 16:30:31;;;;;;;26.57;14.63;;;;;;;;;;5096248;27;20494;-73
2021/12/05 16:32:59;;;;;;;25.23;15.37;;;;;;;;;;5096856;27;20481;-73
2021/12/05 16:35:28;;;;;;;28.33;15.43;;;;;;;;;;5096869;27;20534;-73
2021/12/05 16:37:57;;;;;;;26.93;13.90;;;;;;;;;;5133714;27;20454;-72
2021/12/05 16:40:25;;;;;;;28.83;16.37;;;;;;;;;;5137570;27;20454;-72
2021/12/05 16:43:06;;;;;;;30.70;17.53;;;;;;;;;;5137161;27;20525;-72
2021/12/05 16:45:34;;;;;;;32.90;17.43;;;;;;;;;;5138435;27;20449;-72
2021/12/05 16:48:01;;;;;;;23.67;15.70;;;;;;;;;;5137972;27;21044;-72
2021/12/05 16:50:29;;;;;;;24.80;14.10;;;;;;;;;;5108620;27;20517;-72
2021/12/05 16:52:57;;;;;;;27.53;15.17;;;;;;;;;;5095188;27;20450;-73
2021/12/05 16:55:29;;;;;;;25.70;13.83;;;;;;;;;;5096650;27;20451;-72
2021/12/05 16:58:05;;;;;;;22.27;13.07;;;;;;;;;;5096129;28;20447;-72
2021/12/05 17:00:35;;;;;;;30.33;14.23;;;;;;;;;;5095533;27;20451;-72
2021/12/05 17:03:07;;;;;;;20.30;13.13;;;;;;;;;;5095993;27;20447;-73
2021/12/05 17:05:37;;;;;;;26.07;14.67;;;;;;;;;;5095862;27;20528;-73
2021/12/05 17:08:11;;;;;;;20.10;13.10;;;;;;;;;;5095157;27;20456;-72
2021/12/05 17:10:40;;;;;;;21.20;12.30;;;;;;;;;;5096241;27;20906;-73
2021/12/05 17:13:16;;;;;;;26.00;15.37;;;;;;;;;;5095502;27;20448;-72
2021/12/05 17:15:46;;;;;;;20.77;12.07;;;;;;;;;;5107896;27;20939;-72
2021/12/05 17:18:17;;;;;;;22.60;13.90;;;;;;;;;;5116567;27;20447;-72
2021/12/05 17:20:46;;;;;;;21.67;13.10;;;;;;;;;;5102961;27;20483;-72
2021/12/05 17:23:14;;;;;;;23.60;11.07;;;;;;;;;;5107985;27;20455;-72
2021/12/05 17:25:44;;;;;;;17.90;10.80;;;;;;;;;;5117595;27;20454;-72
2021/12/05 17:28:12;;;;;;;20.67;13.10;;;;;;;;;;5116488;27;21950;-72
2021/12/05 17:30:50;;;;;;;19.70;12.10;;;;;;;;;;5116736;27;20955;-72
2021/12/05 17:33:28;;;;;;;21.73;12.63;;;;;;;;;;5115396;27;20556;-72
2021/12/05 17:35:55;;;;;;;23.20;13.10;;;;;;;;;;5116450;27;20800;-72
2021/12/05 17:38:32;;;;;;;24.70;14.13;;;;;;;;;;5115758;27;20541;-73
2021/12/05 17:40:59;;;;;;;20.93;14.10;;;;;;;;;;5115998;27;20447;-73
2021/12/05 17:43:30;;;;;;;21.30;13.30;;;;;;;;;;5115968;27;20458;-73
2021/12/05 17:46:00;;;;;;;20.07;12.37;;;;;;;;;;5118134;27;20930;-73
2021/12/05 17:48:28;;;;;;;20.40;12.97;;;;;;;;;;5119879;27;20463;-73
2021/12/05 17:51:03;;;;;;;21.70;12.70;;;;;;;;;;5101858;27;20479;-73
2021/12/05 17:53:49;;;;;;;22.00;13.00;;;;;;;;;;5120375;27;20442;-73
2021/12/05 17:56:35;;;;;;;21.77;13.13;;;;;;;;;;5111405;27;20463;-74
2021/12/05 17:59:12;;;;;;;19.57;10.27;;;;;;;;;;5100201;27;20879;-73
2021/12/05 18:04:25;;;;;;;23.30;14.67;;;;;;;;;;5087104;27;20444;-73
2021/12/05 18:06:52;;;;;;;26.63;16.30;;;;;;;;;;5099961;27;20538;-73
2021/12/05 18:09:19;;;;;;;23.87;12.50;;;;;;;;;;5099708;27;20456;-73
2021/12/05 18:11:47;;;;;;;20.60;13.40;;;;;;;;;;5098673;27;20794;-73
2021/12/05 18:14:14;;;;;;;21.80;13.20;;;;;;;;;;5099528;27;20462;-73
2021/12/05 18:16:46;;;;;;;21.30;12.40;;;;;;;;;;5099224;27;20443;-75
2021/12/05 18:19:17;;;;;;;26.70;13.70;;;;;;;;;;5098600;27;20496;-73
2021/12/05 18:21:45;;;;;;;23.73;13.43;;;;;;;;;;5099297;27;20455;-72
2021/12/05 18:24:13;;;;;;;25.30;14.00;;;;;;;;;;5098817;27;20494;-74
2021/12/05 18:26:41;;;;;;;27.30;13.90;;;;;;;;;;5098838;27;20523;-73
2021/12/05 18:29:10;;;;;;;26.87;15.07;;;;;;;;;;5099721;27;20462;-74
2021/12/05 18:31:39;;;;;;;33.70;14.63;;;;;;;;;;5098286;27;20495;-73
2021/12/05 18:34:08;;;;;;;21.93;13.20;;;;;;;;;;5099088;27;20796;-74
2021/12/05 18:36:40;;;;;;;28.27;15.97;;;;;;;;;;5098586;27;20447;-75
2021/12/05 18:39:10;;;;;;;20.80;13.07;;;;;;;;;;5097548;27;20456;-73
2021/12/05 18:41:38;;;;;;;28.30;14.97;;;;;;;;;;5081019;28;20447;-74
2021/12/05 18:44:12;;;;;;;25.10;14.27;;;;;;;;;;5097608;27;21175;-73
2021/12/05 18:46:40;;;;;;;28.57;14.83;;;;;;;;;;5098654;27;20459;-73
2021/12/05 18:49:12;;;;;;;26.00;14.73;;;;;;;;;;5099277;27;20507;-74
2021/12/05 18:51:41;;;;;;;25.07;16.30;;;;;;;;;;5110449;27;20482;-74
2021/12/05 18:54:12;;;;;;;31.67;15.40;;;;;;;;;;5118917;27;20446;-72
2021/12/05 18:56:40;;;;;;;20.43;12.70;;;;;;;;;;5118425;27;20461;-72
2021/12/05 18:59:07;;;;;;;33.87;16.03;;;;;;;;;;5117400;27;20458;-74
2021/12/05 19:04:38;;;;;;;21.77;13.77;;;;;;;;;;5120161;27;20538;-72